Time;durP1;ratioP1;P1;durP2;ratioP2;P2;SDS_P1;SDS_P2;PMS_P1;PMS_P2;Temp;Humidity;BMP_temperature;BMP_pressure;BME280_temperature;BME280_humidity;BME280_pressure;Samples;Min_cycle;Max_cycle;Signal;HPM_P1;HPM_P2
2021/11/24 00:00:44;;;;;;;0.68;0.68;;;0.50;99.90;;;;;;4994448;28;20034;-63
2021/11/24 00:03:10;;;;;;;0.50;0.50;;;0.40;99.90;;;;;;4995447;28;20041;-63
2021/11/24 00:05:36;;;;;;;0.10;0.10;;;0.40;99.90;;;;;;4995289;28;20034;-63
2021/11/24 00:08:02;;;;;;;1.00;1.00;;;0.40;99.90;;;;;;4994149;28;20034;-63
2021/11/24 00:10:31;;;;;;;0.43;0.43;;;0.30;99.90;;;;;;4993847;28;20514;-63
2021/11/24 00:12:58;;;;;;;0.20;0.20;;;0.30;99.90;;;;;;4994777;28;20042;-63
2021/11/24 00:15:24;;;;;;;3.20;2.75;;;0.30;99.90;;;;;;4993574;28;20031;-63
2021/11/24 00:17:50;;;;;;;1.45;0.90;;;0.30;99.90;;;;;;4995023;28;20031;-62
2021/11/24 00:20:16;;;;;;;1.75;1.65;;;0.20;99.90;;;;;;4993657;28;20042;-63
2021/11/24 00:22:43;;;;;;;2.30;1.95;;;0.20;99.90;;;;;;4993641;28;20038;-62
2021/11/24 00:25:10;;;;;;;0.50;0.50;;;0.30;99.90;;;;;;4994853;28;20030;-63
2021/11/24 00:27:37;;;;;;;1.50;1.40;;;0.20;99.90;;;;;;4993386;28;20517;-63
2021/11/24 00:30:06;;;;;;;0.10;0.10;;;0.20;99.90;;;;;;4993873;28;20026;-63
2021/11/24 00:32:33;;;;;;;4.07;1.30;;;0.20;99.90;;;;;;4994669;28;20038;-62
2021/11/24 00:34:59;;;;;;;0.10;0.10;;;0.10;99.90;;;;;;4993461;28;20062;-63
2021/11/24 00:37:26;;;;;;;2.03;1.10;;;0.00;99.90;;;;;;4994512;28;20380;-63
2021/11/24 00:39:52;;;;;;;0.10;0.10;;;0.00;99.90;;;;;;4994561;28;20034;-63
2021/11/24 00:42:18;;;;;;;0.20;0.20;;;0.00;99.90;;;;;;4993380;28;20034;-63
2021/11/24 00:44:44;;;;;;;0.20;0.20;;;0.10;99.90;;;;;;4992765;28;20122;-62
2021/11/24 00:47:09;;;;;;;0.10;0.10;;;0.20;99.90;;;;;;4994640;28;20042;-63
2021/11/24 00:49:36;;;;;;;0.38;0.35;;;0.20;99.90;;;;;;4993810;28;20428;-62
2021/11/24 00:52:03;;;;;;;0.10;0.10;;;0.10;99.90;;;;;;4993391;28;20177;-62
2021/11/24 00:54:28;;;;;;;0.10;0.10;;;0.00;99.90;;;;;;4994477;28;20382;-63
2021/11/24 00:56:54;;;;;;;0.40;0.40;;;0.10;99.90;;;;;;4994317;28;20035;-62
2021/11/24 00:59:20;;;;;;;0.95;0.95;;;0.20;99.90;;;;;;4994200;28;20045;-63
2021/11/24 01:01:46;;;;;;;2.55;1.45;;;0.20;99.90;;;;;;4994322;28;20033;-62
2021/11/24 01:04:11;;;;;;;2.65;1.65;;;0.20;99.90;;;;;;4994407;28;20090;-63
2021/11/24 01:06:37;;;;;;;0.10;0.10;;;0.20;99.90;;;;;;4994109;28;20057;-63
2021/11/24 01:09:04;;;;;;;0.55;0.55;;;0.20;99.90;;;;;;4993847;28;20403;-62
2021/11/24 01:11:31;;;;;;;0.10;0.10;;;0.20;99.90;;;;;;4993855;28;20049;-62
2021/11/24 01:13:57;;;;;;;0.10;0.10;;;0.20;99.90;;;;;;4994059;28;20459;-63
2021/11/24 01:16:23;;;;;;;0.10;0.10;;;0.10;99.90;;;;;;4992918;28;20030;-63
2021/11/24 01:18:48;;;;;;;0.10;0.10;;;0.20;99.90;;;;;;4992902;28;20096;-62
2021/11/24 01:21:14;;;;;;;0.10;0.10;;;0.20;99.90;;;;;;4993804;28;20402;-62
2021/11/24 01:23:40;;;;;;;0.10;0.10;;;0.20;99.90;;;;;;4992384;28;20030;-62
2021/11/24 01:26:06;;;;;;;0.10;0.10;;;0.00;99.90;;;;;;4993869;28;20041;-62
2021/11/24 01:28:32;;;;;;;0.13;0.13;;;-0.20;99.90;;;;;;4993513;28;20372;-62
2021/11/24 01:30:58;;;;;;;0.28;0.28;;;-0.10;99.90;;;;;;4992359;28;20042;-62
2021/11/24 01:33:23;;;;;;;0.10;0.10;;;0.00;99.90;;;;;;4992029;28;20450;-62
2021/11/24 01:35:50;;;;;;;1.20;1.10;;;0.00;99.90;;;;;;4993655;28;20113;-62
2021/11/24 01:38:15;;;;;;;0.55;0.55;;;0.10;99.90;;;;;;4992623;28;20045;-62
2021/11/24 01:40:41;;;;;;;0.10;0.10;;;0.20;99.90;;;;;;4992106;28;20039;-62
2021/11/24 01:43:08;;;;;;;0.10;0.10;;;0.00;99.90;;;;;;4993353;28;20050;-63
2021/11/24 01:45:36;;;;;;;0.10;0.10;;;0.10;99.90;;;;;;4975871;28;20031;-62
2021/11/24 01:48:02;;;;;;;0.40;0.40;;;0.20;99.90;;;;;;4993458;28;20471;-62
2021/11/24 01:50:29;;;;;;;0.68;0.68;;;0.20;99.90;;;;;;4993306;28;20371;-62
2021/11/24 01:52:55;;;;;;;4.53;1.40;;;0.10;99.90;;;;;;4992057;28;20440;-62
2021/11/24 01:55:22;;;;;;;0.68;0.68;;;-0.10;99.90;;;;;;4993503;28;20499;-62
2021/11/24 01:57:50;;;;;;;0.20;0.20;;;0.00;99.90;;;;;;4993070;28;20038;-62
2021/11/24 02:00:26;;;;;;;0.17;0.17;;;0.00;99.90;;;;;;4992482;28;20038;-62
2021/11/24 02:02:52;;;;;;;0.65;0.65;;;-0.20;99.90;;;;;;4992144;28;20030;-62
2021/11/24 02:05:19;;;;;;;0.50;0.50;;;-0.40;99.90;;;;;;4993096;28;20031;-62
2021/11/24 02:07:44;;;;;;;0.10;0.10;;;-0.30;99.90;;;;;;4992024;28;20117;-62
2021/11/24 02:10:10;;;;;;;0.10;0.10;;;-0.20;99.90;;;;;;4991907;28;20113;-62
2021/11/24 02:12:37;;;;;;;0.10;0.10;;;-0.10;99.90;;;;;;4992922;28;20038;-62
2021/11/24 02:15:06;;;;;;;0.10;0.10;;;-0.10;99.90;;;;;;4991645;28;20057;-62
2021/11/24 02:17:32;;;;;;;0.10;0.10;;;-0.20;99.90;;;;;;4991515;28;20034;-62
2021/11/24 02:19:58;;;;;;;0.10;0.10;;;-0.20;99.90;;;;;;4993004;28;20034;-62
2021/11/24 02:22:24;;;;;;;0.10;0.10;;;-0.10;99.90;;;;;;4992763;28;20038;-62
2021/11/24 02:24:50;;;;;;;0.68;0.68;;;-0.20;99.90;;;;;;4992643;28;20042;-62
2021/11/24 02:27:16;;;;;;;0.10;0.10;;;-0.10;99.90;;;;;;4991538;28;20042;-63
2021/11/24 02:29:46;;;;;;;0.22;0.22;;;-0.10;99.90;;;;;;4991503;28;20030;-62
2021/11/24 02:32:16;;;;;;;0.15;0.15;;;-0.10;99.90;;;;;;4992899;28;20537;-62
2021/11/24 02:34:42;;;;;;;0.30;0.30;;;-0.10;99.90;;;;;;4991368;28;20034;-63
2021/11/24 02:37:08;;;;;;;0.10;0.10;;;-0.10;99.90;;;;;;4993077;28;20024;-63
2021/11/24 02:39:34;;;;;;;0.10;0.10;;;-0.10;99.90;;;;;;4992539;28;20372;-63
2021/11/24 02:42:00;;;;;;;3.53;1.85;;;-0.20;99.90;;;;;;4992812;28;20038;-63
2021/11/24 02:44:36;;;;;;;0.10;0.10;;;-0.20;99.90;;;;;;4992641;28;20058;-63
2021/11/24 02:47:16;;;;;;;0.10;0.10;;;-0.30;99.90;;;;;;4992674;28;20030;-63
2021/11/24 02:49:46;;;;;;;2.50;2.38;;;-0.30;99.90;;;;;;4992500;28;20495;-63
2021/11/24 02:52:14;;;;;;;0.10;0.10;;;-0.30;99.90;;;;;;4992976;28;20074;-63
2021/11/24 02:54:47;;;;;;;0.22;0.22;;;-0.20;99.90;;;;;;4992416;28;20041;-63
2021/11/24 02:57:13;;;;;;;0.10;0.10;;;-0.30;99.90;;;;;;4991693;28;20042;-63
2021/11/24 02:59:39;;;;;;;0.20;0.20;;;-0.20;99.90;;;;;;4993090;28;20029;-63
2021/11/24 03:02:05;;;;;;;1.27;1.17;;;-0.20;99.90;;;;;;4992964;28;20030;-63
2021/11/24 03:04:32;;;;;;;2.20;2.08;;;-0.10;99.90;;;;;;4992490;28;20575;-63
2021/11/24 03:07:00;;;;;;;0.22;0.22;;;-0.10;99.90;;;;;;4992539;28;20030;-63
2021/11/24 03:09:26;;;;;;;0.10;0.10;;;-0.10;99.90;;;;;;4991742;28;20045;-63
2021/11/24 03:11:54;;;;;;;0.10;0.10;;;-0.10;99.90;;;;;;4993143;28;20464;-63
2021/11/24 03:14:20;;;;;;;0.57;0.57;;;0.00;99.90;;;;;;4996136;28;20030;-63
2021/11/24 03:16:47;;;;;;;0.10;0.10;;;0.00;99.90;;;;;;4994708;28;20117;-63
2021/11/24 03:19:13;;;;;;;0.10;0.10;;;0.20;99.90;;;;;;4994974;28;20444;-63
2021/11/24 03:21:39;;;;;;;0.10;0.10;;;0.10;99.90;;;;;;4995835;28;20046;-63
2021/11/24 03:24:05;;;;;;;0.10;0.10;;;0.00;99.90;;;;;;4995843;28;20022;-63
2021/11/24 03:26:31;;;;;;;0.10;0.10;;;0.00;99.90;;;;;;4995967;28;20392;-63
2021/11/24 03:28:57;;;;;;;0.10;0.10;;;0.00;99.90;;;;;;4994994;28;20117;-63
2021/11/24 03:31:23;;;;;;;0.10;0.10;;;0.10;99.90;;;;;;4994847;28;20034;-62
2021/11/24 03:33:49;;;;;;;0.43;0.43;;;0.00;99.90;;;;;;4995879;28;20084;-62
2021/11/24 03:36:15;;;;;;;0.10;0.10;;;0.10;99.90;;;;;;4995790;28;20506;-62
2021/11/24 03:38:41;;;;;;;0.68;0.68;;;0.10;99.90;;;;;;4994479;28;20049;-62
2021/11/24 03:41:07;;;;;;;0.20;0.20;;;0.10;99.90;;;;;;4994197;28;20121;-62
2021/11/24 03:43:33;;;;;;;1.45;1.38;;;0.20;99.90;;;;;;4995507;28;20185;-62
2021/11/24 03:45:59;;;;;;;0.13;0.13;;;0.30;99.90;;;;;;4994281;28;20084;-62
2021/11/24 03:48:25;;;;;;;0.10;0.10;;;0.40;99.90;;;;;;4995662;28;20139;-62
2021/11/24 03:50:51;;;;;;;0.10;0.10;;;0.50;99.90;;;;;;4994223;28;20382;-62
2021/11/24 03:53:17;;;;;;;0.35;0.35;;;0.40;99.90;;;;;;4995571;28;20093;-62
2021/11/24 03:55:43;;;;;;;1.13;0.80;;;0.50;99.90;;;;;;4993969;28;20066;-62
2021/11/24 03:58:08;;;;;;;0.20;0.20;;;0.50;99.90;;;;;;4995689;28;20033;-62
2021/11/24 04:00:35;;;;;;;0.10;0.10;;;0.40;99.90;;;;;;4995525;28;20030;-62
2021/11/24 04:03:01;;;;;;;0.60;0.60;;;0.50;99.90;;;;;;4995446;28;20129;-62
2021/11/24 04:05:27;;;;;;;0.20;0.20;;;0.60;99.90;;;;;;4995460;28;20042;-62
2021/11/24 04:07:54;;;;;;;2.55;1.40;;;0.50;99.90;;;;;;4994849;28;20088;-62
2021/11/24 04:10:20;;;;;;;3.63;0.75;;;0.60;99.90;;;;;;4993870;28;20483;-62
2021/11/24 04:12:45;;;;;;;0.40;0.40;;;0.60;99.90;;;;;;4995234;28;20419;-62
2021/11/24 04:15:15;;;;;;;2.85;2.30;;;0.60;99.90;;;;;;4995059;28;20034;-62
2021/11/24 04:17:42;;;;;;;2.30;0.82;;;0.70;99.90;;;;;;4993417;28;20026;-62
2021/11/24 04:20:12;;;;;;;0.10;0.10;;;0.70;99.90;;;;;;4995333;28;20100;-62
2021/11/24 04:22:37;;;;;;;0.10;0.10;;;0.80;99.90;;;;;;4993414;28;20034;-62
2021/11/24 04:25:05;;;;;;;1.27;1.20;;;0.90;99.90;;;;;;4994069;28;20114;-63
2021/11/24 04:27:30;;;;;;;0.10;0.10;;;0.80;99.90;;;;;;4994653;28;20398;-63
2021/11/24 04:29:56;;;;;;;0.35;0.35;;;0.80;99.90;;;;;;4994690;28;20041;-62
2021/11/24 04:32:24;;;;;;;1.10;1.00;;;0.90;99.90;;;;;;4993563;28;20035;-63
2021/11/24 04:34:50;;;;;;;0.10;0.10;;;0.80;99.90;;;;;;4994478;28;20038;-63
2021/11/24 04:37:15;;;;;;;0.20;0.20;;;0.90;99.90;;;;;;4968642;28;20050;-62
2021/11/24 04:39:42;;;;;;;8.88;4.03;;;0.90;99.90;;;;;;4994642;28;20035;-62
2021/11/24 04:42:08;;;;;;;0.52;0.52;;;0.90;99.90;;;;;;4993536;28;20467;-62
2021/11/24 04:44:34;;;;;;;0.45;0.45;;;1.00;99.90;;;;;;4994122;28;20057;-62
2021/11/24 04:47:01;;;;;;;1.52;1.42;;;1.00;99.90;;;;;;4994258;28;20034;-62
2021/11/24 04:49:36;;;;;;;1.40;1.30;;;1.00;99.90;;;;;;4976451;28;20034;-62
2021/11/24 04:52:02;;;;;;;0.45;0.45;;;1.10;99.90;;;;;;4994032;28;20093;-62
2021/11/24 04:54:28;;;;;;;0.30;0.30;;;1.10;99.90;;;;;;4994488;28;20045;-62
2021/11/24 04:56:54;;;;;;;0.70;0.70;;;1.20;99.90;;;;;;4992782;28;20050;-62
2021/11/24 04:59:19;;;;;;;0.88;0.80;;;1.10;99.90;;;;;;4994104;28;20030;-62
2021/11/24 05:01:45;;;;;;;0.50;0.50;;;1.10;99.90;;;;;;4993807;28;20089;-62
2021/11/24 05:04:11;;;;;;;0.13;0.13;;;1.20;99.90;;;;;;4994344;28;20031;-62
2021/11/24 05:06:37;;;;;;;0.20;0.20;;;1.20;99.90;;;;;;5009358;28;20031;-62
2021/11/24 05:09:05;;;;;;;0.10;0.10;;;1.20;99.90;;;;;;4994351;28;20038;-62
2021/11/24 05:11:30;;;;;;;25.75;4.47;;;1.10;99.90;;;;;;5008631;28;20065;-62
2021/11/24 05:14:01;;;;;;;0.10;0.10;;;1.10;99.90;;;;;;4993697;28;20443;-62
2021/11/24 05:16:31;;;;;;;0.10;0.10;;;1.20;99.90;;;;;;4992937;28;20026;-62
2021/11/24 05:18:57;;;;;;;0.10;0.10;;;1.30;99.90;;;;;;4992553;28;20034;-62
2021/11/24 05:23:49;;;;;;;0.30;0.30;;;1.50;99.90;;;;;;4993672;28;20035;-61
2021/11/24 05:26:16;;;;;;;0.10;0.10;;;1.60;99.90;;;;;;4993810;28;20396;-60
2021/11/24 05:28:42;;;;;;;1.00;0.63;;;1.70;99.90;;;;;;4993783;28;20433;-61
2021/11/24 05:31:08;;;;;;;2.20;1.75;;;1.80;99.90;;;;;;4993590;28;20041;-61
2021/11/24 05:33:35;;;;;;;1.65;1.05;;;1.80;99.90;;;;;;4993900;28;20066;-61
2021/11/24 05:36:03;;;;;;;6.20;2.30;;;1.80;99.90;;;;;;4993699;28;20131;-61
2021/11/24 05:38:29;;;;;;;0.47;0.47;;;1.60;99.90;;;;;;4993406;28;20148;-62
2021/11/24 05:40:58;;;;;;;0.10;0.10;;;1.60;99.90;;;;;;4991964;28;20069;-62
2021/11/24 05:43:26;;;;;;;8.27;7.45;;;1.70;99.90;;;;;;5008143;28;20043;-62
2021/11/24 05:48:19;;;;;;;0.10;0.10;;;1.70;99.90;;;;;;4993159;28;20038;-60
2021/11/24 05:50:47;;;;;;;0.10;0.10;;;1.80;99.90;;;;;;5008005;28;20652;-62
2021/11/24 05:53:17;;;;;;;0.17;0.17;;;1.80;99.90;;;;;;4992954;28;20441;-62
2021/11/24 05:55:44;;;;;;;0.57;0.57;;;1.70;99.90;;;;;;4991916;28;20105;-61
2021/11/24 05:58:12;;;;;;;0.40;0.40;;;1.70;99.90;;;;;;4992650;28;20041;-63
2021/11/24 06:00:39;;;;;;;0.28;0.28;;;1.70;99.90;;;;;;4991450;28;20049;-62
2021/11/24 06:03:06;;;;;;;0.65;0.65;;;1.80;99.90;;;;;;4991395;28;20038;-61
2021/11/24 06:05:32;;;;;;;0.28;0.28;;;1.80;99.90;;;;;;4991160;28;20039;-62
2021/11/24 06:07:58;;;;;;;1.50;1.40;;;1.80;99.90;;;;;;4990869;28;20038;-61
2021/11/24 06:10:25;;;;;;;0.47;0.47;;;1.80;99.90;;;;;;4992904;28;20391;-62
2021/11/24 06:12:51;;;;;;;0.45;0.45;;;1.80;99.90;;;;;;4991638;28;20035;-61
2021/11/24 06:15:17;;;;;;;0.40;0.40;;;1.80;99.90;;;;;;4991957;28;20045;-63
2021/11/24 06:17:44;;;;;;;0.10;0.10;;;1.90;99.90;;;;;;4992663;28;20089;-62
2021/11/24 06:20:11;;;;;;;0.10;0.10;;;1.90;99.90;;;;;;4993176;28;20110;-62
2021/11/24 06:22:38;;;;;;;0.25;0.25;;;2.00;99.90;;;;;;4991472;28;20039;-62
2021/11/24 06:25:06;;;;;;;0.10;0.10;;;2.00;99.90;;;;;;4991922;28;20035;-62
2021/11/24 06:27:32;;;;;;;0.38;0.38;;;2.10;99.90;;;;;;4992872;28;20088;-63
2021/11/24 06:29:58;;;;;;;0.40;0.40;;;2.20;99.90;;;;;;4991624;28;20046;-56
2021/11/24 06:32:27;;;;;;;0.10;0.10;;;2.20;99.90;;;;;;4992914;28;20081;-63
2021/11/24 06:34:53;;;;;;;0.15;0.15;;;2.20;99.90;;;;;;4991776;28;20037;-61
2021/11/24 06:37:18;;;;;;;0.15;0.15;;;2.30;99.90;;;;;;4992761;28;20038;-62
2021/11/24 06:39:44;;;;;;;1.15;0.75;;;2.30;99.90;;;;;;4991740;28;20113;-62
2021/11/24 06:42:10;;;;;;;0.10;0.10;;;2.20;99.90;;;;;;4991371;28;20026;-62
2021/11/24 06:44:36;;;;;;;0.47;0.47;;;2.30;99.90;;;;;;4972574;28;20063;-62
2021/11/24 06:47:02;;;;;;;0.00;0.00;;;2.30;99.90;;;;;;4984437;28;20080;-61
2021/11/24 06:49:28;;;;;;;0.20;0.20;;;2.30;99.90;;;;;;4996443;28;20494;-62
2021/11/24 06:51:54;;;;;;;0.20;0.20;;;2.30;99.90;;;;;;4996589;28;20042;-61
2021/11/24 06:54:19;;;;;;;0.30;0.30;;;2.30;99.90;;;;;;4994958;28;20026;-61
2021/11/24 06:56:48;;;;;;;0.30;0.30;;;2.40;99.90;;;;;;4996370;28;20030;-61
2021/11/24 06:59:14;;;;;;;0.93;0.90;;;2.50;99.90;;;;;;4995182;28;20407;-61
2021/11/24 07:01:40;;;;;;;0.75;0.75;;;2.50;99.90;;;;;;4995235;28;20113;-61
2021/11/24 07:04:06;;;;;;;0.10;0.10;;;2.50;99.90;;;;;;4994963;28;20121;-62
2021/11/24 07:06:33;;;;;;;0.10;0.10;;;2.30;99.90;;;;;;4996308;28;20463;-62
2021/11/24 07:08:59;;;;;;;0.40;0.40;;;2.40;99.90;;;;;;4996162;28;20052;-62
2021/11/24 07:11:29;;;;;;;0.10;0.10;;;2.40;99.90;;;;;;4995158;28;20035;-62
2021/11/24 07:13:55;;;;;;;0.17;0.17;;;2.40;99.90;;;;;;4995876;28;20514;-62
2021/11/24 07:16:21;;;;;;;0.10;0.10;;;2.50;99.90;;;;;;4995917;28;20372;-62
2021/11/24 07:18:47;;;;;;;0.00;0.00;;;2.60;99.90;;;;;;4995951;28;20034;-62
2021/11/24 07:21:13;;;;;;;0.45;0.45;;;2.60;99.90;;;;;;4996260;28;20034;-62
2021/11/24 07:23:39;;;;;;;0.10;0.10;;;2.60;99.90;;;;;;4996310;28;20030;-63
2021/11/24 07:26:04;;;;;;;0.20;0.20;;;2.70;99.90;;;;;;4995931;28;20057;-62
2021/11/24 07:28:30;;;;;;;3.80;3.42;;;2.80;99.90;;;;;;4994957;28;20041;-64
2021/11/24 07:30:56;;;;;;;2.75;2.17;;;2.80;99.90;;;;;;4995814;28;20031;-64
2021/11/24 07:33:22;;;;;;;0.10;0.10;;;2.80;99.90;;;;;;4996091;28;20035;-64
2021/11/24 07:35:48;;;;;;;2.55;2.35;;;2.80;99.90;;;;;;4994690;28;20097;-64
2021/11/24 07:38:14;;;;;;;0.08;0.08;;;2.80;99.90;;;;;;4994540;28;20042;-64
2021/11/24 07:40:40;;;;;;;0.10;0.10;;;2.80;99.90;;;;;;4994305;28;20042;-63
2021/11/24 07:43:07;;;;;;;0.47;0.47;;;2.90;99.90;;;;;;4995474;28;20553;-63
2021/11/24 07:45:33;;;;;;;0.10;0.10;;;2.90;99.90;;;;;;4995902;28;20034;-63
2021/11/24 07:48:02;;;;;;;0.10;0.10;;;2.90;99.90;;;;;;4995424;28;20114;-65
2021/11/24 07:50:28;;;;;;;1.00;1.00;;;2.90;99.90;;;;;;4994500;28;20026;-63
2021/11/24 07:52:55;;;;;;;10.77;1.88;;;3.00;99.90;;;;;;4995370;28;20055;-63
2021/11/24 07:55:21;;;;;;;0.25;0.25;;;3.00;99.90;;;;;;4995374;28;20037;-63
2021/11/24 07:57:47;;;;;;;0.50;0.50;;;3.10;99.90;;;;;;4993617;28;20035;-63
2021/11/24 08:00:14;;;;;;;0.10;0.10;;;3.10;99.90;;;;;;4993755;28;20113;-63
2021/11/24 08:02:40;;;;;;;0.10;0.10;;;3.20;99.90;;;;;;4995553;28;20030;-63
2021/11/24 08:05:08;;;;;;;0.10;0.10;;;3.30;99.90;;;;;;4995510;28;20125;-63
2021/11/24 08:07:36;;;;;;;0.38;0.32;;;3.40;99.90;;;;;;4995279;28;20120;-63
2021/11/24 08:10:05;;;;;;;3.30;1.75;;;3.40;99.90;;;;;;4993585;28;20042;-63
2021/11/24 08:12:31;;;;;;;0.10;0.10;;;3.50;99.90;;;;;;4995030;28;20498;-63
2021/11/24 08:14:57;;;;;;;0.82;0.82;;;3.60;99.90;;;;;;4994982;28;20117;-63
2021/11/24 08:17:23;;;;;;;0.43;0.43;;;3.60;99.90;;;;;;4994851;28;20105;-62
2021/11/24 08:19:49;;;;;;;0.95;0.95;;;3.50;99.90;;;;;;4993960;28;20122;-62
2021/11/24 08:22:15;;;;;;;1.52;1.42;;;3.60;99.90;;;;;;4993625;28;20402;-62
2021/11/24 08:24:41;;;;;;;1.27;1.17;;;3.70;99.90;;;;;;4994960;28;20129;-62
2021/11/24 08:27:07;;;;;;;0.57;0.57;;;3.80;99.90;;;;;;4994238;28;20114;-62
2021/11/24 08:29:33;;;;;;;0.88;0.85;;;3.90;99.90;;;;;;4994829;28;20030;-65
2021/11/24 08:31:58;;;;;;;0.20;0.20;;;4.00;99.90;;;;;;4993535;28;20076;-63
2021/11/24 08:34:24;;;;;;;0.10;0.10;;;4.00;99.90;;;;;;4994892;28;20046;-63
2021/11/24 08:36:52;;;;;;;0.20;0.20;;;4.20;99.90;;;;;;4994243;28;20121;-63
2021/11/24 08:39:18;;;;;;;0.32;0.32;;;4.20;99.90;;;;;;4993297;28;20077;-63
2021/11/24 08:41:46;;;;;;;0.20;0.20;;;4.20;99.90;;;;;;4993251;28;20034;-63
2021/11/24 08:44:13;;;;;;;0.30;0.30;;;4.30;99.90;;;;;;4977087;28;20038;-63
2021/11/24 08:46:40;;;;;;;1.65;1.55;;;4.50;99.90;;;;;;4993394;28;20387;-64
2021/11/24 08:49:06;;;;;;;1.30;1.20;;;4.60;99.90;;;;;;4994215;28;20046;-64
2021/11/24 08:51:33;;;;;;;1.67;1.58;;;4.70;99.90;;;;;;4994032;28;20030;-63
2021/11/24 08:53:59;;;;;;;0.85;0.70;;;4.80;99.90;;;;;;4994247;28;20117;-63
2021/11/24 08:56:25;;;;;;;2.20;1.58;;;4.90;99.90;;;;;;4994407;28;20117;-63
2021/11/24 08:58:52;;;;;;;0.10;0.10;;;4.90;99.90;;;;;;4993967;28;20073;-63
2021/11/24 09:01:18;;;;;;;0.50;0.50;;;4.90;99.90;;;;;;4994203;28;20037;-63
2021/11/24 09:03:44;;;;;;;0.10;0.10;;;5.10;99.90;;;;;;4993950;28;20231;-63
2021/11/24 09:06:10;;;;;;;0.20;0.20;;;5.20;99.90;;;;;;4992541;28;20030;-64
2021/11/24 09:08:35;;;;;;;0.52;0.52;;;5.30;99.90;;;;;;4994100;28;20034;-63
2021/11/24 09:11:02;;;;;;;0.63;0.63;;;5.40;99.90;;;;;;4993661;28;20042;-63
2021/11/24 09:13:28;;;;;;;0.47;0.25;;;5.50;99.90;;;;;;4994081;28;20037;-63
2021/11/24 09:15:54;;;;;;;0.00;0.00;;;5.60;99.90;;;;;;4992926;28;20041;-63
2021/11/24 09:18:20;;;;;;;0.50;0.50;;;5.60;99.90;;;;;;4992620;28;20034;-63
2021/11/24 09:20:47;;;;;;;0.08;0.08;;;5.80;99.90;;;;;;4993912;28;20062;-63
2021/11/24 09:23:17;;;;;;;0.00;0.00;;;5.80;99.90;;;;;;4994022;28;20125;-63
2021/11/24 09:25:51;;;;;;;0.10;0.10;;;5.80;99.90;;;;;;4993997;28;20034;-63
2021/11/24 09:28:20;;;;;;;0.00;0.00;;;6.00;99.90;;;;;;4993781;28;20088;-63
2021/11/24 09:30:48;;;;;;;0.20;0.20;;;6.10;99.90;;;;;;4993674;28;20557;-63
2021/11/24 09:33:14;;;;;;;5.60;1.38;;;6.10;99.90;;;;;;4993462;28;20034;-63
2021/11/24 09:35:40;;;;;;;0.65;0.63;;;6.30;99.90;;;;;;4992667;28;20050;-63
2021/11/24 09:38:07;;;;;;;0.10;0.10;;;6.30;99.90;;;;;;4992193;28;20071;-63
2021/11/24 09:40:35;;;;;;;1.35;1.17;;;6.30;99.90;;;;;;4992240;28;20041;-63
2021/11/24 09:43:06;;;;;;;0.47;0.47;;;6.50;99.90;;;;;;4992051;28;20171;-63
2021/11/24 09:45:34;;;;;;;1.30;1.15;;;6.40;99.90;;;;;;4992474;28;20045;-63
2021/11/24 09:48:01;;;;;;;0.30;0.30;;;6.40;99.90;;;;;;4993493;28;20034;-63
2021/11/24 09:50:37;;;;;;;3.10;1.65;;;6.60;99.90;;;;;;4993292;28;20487;-65
2021/11/24 09:53:04;;;;;;;1.17;0.45;;;6.50;99.90;;;;;;4993161;28;20031;-65
2021/11/24 09:55:35;;;;;;;0.03;0.03;;;6.60;99.90;;;;;;4992466;28;20042;-65
2021/11/24 09:58:01;;;;;;;0.00;0.00;;;6.90;99.90;;;;;;4993862;28;20426;-65
2021/11/24 10:00:27;;;;;;;0.00;0.00;;;6.90;99.90;;;;;;4994158;28;20093;-65
2021/11/24 10:02:58;;;;;;;0.20;0.20;;;7.10;99.90;;;;;;4992059;28;20030;-64
2021/11/24 10:05:26;;;;;;;0.10;0.10;;;7.60;99.90;;;;;;4993255;28;20110;-64
2021/11/24 10:07:52;;;;;;;0.00;0.00;;;7.70;99.90;;;;;;4993177;28;20423;-64
2021/11/24 10:10:19;;;;;;;0.10;0.10;;;7.80;99.90;;;;;;4992885;28;20514;-64
2021/11/24 10:12:45;;;;;;;0.00;0.00;;;8.10;99.90;;;;;;4993227;28;20479;-64
2021/11/24 10:15:30;;;;;;;0.00;0.00;;;8.00;99.90;;;;;;4991510;28;20097;-63
2021/11/24 10:18:33;;;;;;;0.00;0.00;;;8.30;99.90;;;;;;4991599;28;20467;-64
2021/11/24 10:21:09;;;;;;;0.17;0.17;;;10.20;99.90;;;;;;4991876;28;20050;-63
2021/11/24 10:23:46;;;;;;;0.73;0.52;;;11.10;99.90;;;;;;4992752;28;20118;-63
2021/11/24 10:26:37;;;;;;;0.28;0.10;;;11.50;99.80;;;;;;4991639;28;20038;-63
2021/11/24 10:29:15;;;;;;;0.55;0.47;;;11.40;99.00;;;;;;4991295;28;20077;-63
2021/11/24 10:31:51;;;;;;;0.10;0.10;;;10.90;99.50;;;;;;4955947;28;20027;-63
2021/11/24 10:34:26;;;;;;;0.00;0.00;;;10.20;99.90;;;;;;4973344;28;20046;-64
2021/11/24 10:37:07;;;;;;;0.00;0.00;;;9.70;99.90;;;;;;4972628;28;20031;-64
2021/11/24 10:40:04;;;;;;;0.00;0.00;;;9.30;99.90;;;;;;4973199;28;20035;-63
2021/11/24 10:42:40;;;;;;;0.00;0.00;;;8.50;99.90;;;;;;4987227;28;20444;-64
2021/11/24 10:45:07;;;;;;;0.55;0.55;;;8.20;99.90;;;;;;4988077;28;20039;-62
2021/11/24 10:47:47;;;;;;;0.00;0.00;;;8.30;99.90;;;;;;4978396;28;20057;-64
2021/11/24 10:50:24;;;;;;;0.00;0.00;;;8.30;99.90;;;;;;4991809;28;20026;-63
2021/11/24 10:52:50;;;;;;;0.03;0.03;;;7.90;99.90;;;;;;4991400;28;20092;-62
2021/11/24 10:55:30;;;;;;;0.00;0.00;;;7.90;99.90;;;;;;4992481;28;20030;-63
2021/11/24 10:58:17;;;;;;;0.00;0.00;;;8.40;99.90;;;;;;4992636;28;20034;-63
2021/11/24 11:00:46;;;;;;;0.05;0.05;;;9.50;99.90;;;;;;4992558;28;20035;-63
2021/11/24 11:03:13;;;;;;;0.45;0.45;;;9.80;99.90;;;;;;4992177;28;20514;-62
2021/11/24 11:05:42;;;;;;;0.00;0.00;;;9.60;99.90;;;;;;4992834;28;20026;-63
2021/11/24 11:08:17;;;;;;;0.10;0.10;;;11.50;99.90;;;;;;4992044;28;20391;-63
2021/11/24 11:10:47;;;;;;;7.43;4.50;;;11.30;99.80;;;;;;4992622;28;20058;-63
2021/11/24 11:13:18;;;;;;;0.28;0.17;;;13.50;96.10;;;;;;4992092;28;20030;-63
2021/11/24 11:15:50;;;;;;;0.00;0.00;;;13.00;93.70;;;;;;4991228;28;20031;-63
2021/11/24 11:18:32;;;;;;;0.00;0.00;;;12.30;96.00;;;;;;4991269;28;20089;-63
2021/11/24 11:21:09;;;;;;;0.10;0.10;;;12.50;95.50;;;;;;4991407;28;20442;-63
2021/11/24 11:23:48;;;;;;;0.15;0.15;;;11.60;96.60;;;;;;4992137;28;20049;-63
2021/11/24 11:26:22;;;;;;;0.45;0.45;;;12.60;96.10;;;;;;4992341;28;20065;-63
2021/11/24 11:28:56;;;;;;;0.10;0.10;;;14.30;93.60;;;;;;4992158;28;20034;-63
2021/11/24 11:31:28;;;;;;;0.10;0.10;;;15.40;91.50;;;;;;4992208;28;20538;-63
2021/11/24 11:33:59;;;;;;;0.00;0.00;;;14.10;88.80;;;;;;4993475;28;20054;-64
2021/11/24 11:36:25;;;;;;;0.00;0.00;;;13.10;90.20;;;;;;5010689;28;20121;-62
2021/11/24 11:38:56;;;;;;;0.25;0.25;;;14.20;90.50;;;;;;4995977;28;20467;-63
2021/11/24 11:41:31;;;;;;;;;;;13.70;92.20;;;;;;4995153;28;20026;-63
2021/11/24 11:43:58;;;;;;;0.00;0.00;;;14.30;91.00;;;;;;5009616;28;19917;-63
2021/11/24 11:46:30;;;;;;;0.00;0.00;;;13.70;89.90;;;;;;4995381;28;20558;-63
2021/11/24 11:48:57;;;;;;;0.00;0.00;;;13.20;92.60;;;;;;4995466;28;20454;-63
2021/11/24 11:51:29;;;;;;;0.00;0.00;;;14.40;89.50;;;;;;4995508;28;20077;-63
2021/11/24 11:53:55;;;;;;;0.43;0.43;;;16.20;85.70;;;;;;4994042;28;20046;-63
2021/11/24 11:56:29;;;;;;;105.13;63.78;;;15.00;88.50;;;;;;4994270;28;20026;-63
2021/11/24 11:59:05;;;;;;;44.70;24.67;;;15.70;86.90;;;;;;4995619;28;20618;-63
2021/11/24 12:01:34;;;;;;;56.67;24.63;;;13.60;87.50;;;;;;4995333;28;20031;-63
2021/11/24 12:04:20;;;;;;;0.13;0.13;;;12.60;91.00;;;;;;4995415;28;20166;-62
2021/11/24 12:06:51;;;;;;;0.10;0.10;;;12.20;90.40;;;;;;4995311;28;20080;-63
2021/11/24 12:09:31;;;;;;;0.00;0.00;;;13.50;91.00;;;;;;4993661;28;20052;-62
2021/11/24 12:12:12;;;;;;;0.20;0.05;;;13.60;89.00;;;;;;4993909;28;20497;-62
2021/11/24 12:14:44;;;;;;;0.10;0.10;;;15.10;84.40;;;;;;5010236;28;20034;-62
2021/11/24 12:17:35;;;;;;;0.00;0.00;;;14.30;89.20;;;;;;5010072;28;20088;-63
2021/11/24 12:20:12;;;;;;;0.00;0.00;;;14.50;86.10;;;;;;4995009;28;20054;-62
2021/11/24 12:22:50;;;;;;;0.00;0.00;;;13.10;90.40;;;;;;4994993;28;20070;-62
2021/11/24 12:25:25;;;;;;;0.35;0.35;;;13.00;90.20;;;;;;4994694;28;20118;-64
2021/11/24 12:27:54;;;;;;;0.00;0.00;;;11.90;91.60;;;;;;4994732;28;20034;-62
2021/11/24 12:33:29;;;;;;;0.40;0.40;;;12.20;92.80;;;;;;4994617;28;20038;-63
2021/11/24 12:36:12;;;;;;;0.00;0.00;;;12.50;92.50;;;;;;4996261;28;20046;-63
2021/11/24 12:38:54;;;;;;;0.35;0.35;;;13.60;91.10;;;;;;4994667;28;20034;-63
2021/11/24 12:41:29;;;;;;;0.85;0.43;;;13.30;89.10;;;;;;4994210;28;20169;-63
2021/11/24 12:44:09;;;;;;;0.10;0.10;;;10.50;95.30;;;;;;5007472;28;20054;-63
2021/11/24 12:46:39;;;;;;;0.35;0.25;;;10.80;96.00;;;;;;4994216;28;20085;-62
2021/11/24 12:49:15;;;;;;;0.00;0.00;;;11.20;96.20;;;;;;4994517;28;20046;-62
2021/11/24 12:51:48;;;;;;;0.00;0.00;;;11.20;95.60;;;;;;4994757;28;20415;-61
2021/11/24 12:54:14;;;;;;;0.15;0.13;;;10.90;95.00;;;;;;4994346;28;20058;-62
2021/11/24 12:56:53;;;;;;;0.00;0.00;;;10.90;96.20;;;;;;4994098;28;20070;-63
2021/11/24 12:59:24;;;;;;;0.00;0.00;;;10.90;95.60;;;;;;4994058;28;20479;-63
2021/11/24 13:01:58;;;;;;;0.00;0.00;;;10.60;98.10;;;;;;4994256;28;20041;-63
2021/11/24 13:04:36;;;;;;;0.52;0.52;;;10.40;95.90;;;;;;4994335;28;20031;-63
2021/11/24 13:07:04;;;;;;;4.18;0.65;;;11.00;95.90;;;;;;4994142;28;20434;-62
2021/11/24 13:09:39;;;;;;;0.10;0.10;;;11.50;96.00;;;;;;4994339;28;20053;-61